Time;durP1;ratioP1;P1;durP2;ratioP2;P2;SDS_P1;SDS_P2;PMS_P1;PMS_P2;Temp;Humidity;BMP_temperature;BMP_pressure;BME280_temperature;BME280_humidity;BME280_pressure;Samples;Min_cycle;Max_cycle;Signal;HPM_P1;HPM_P2
2023/04/25 00:02:08;;;;;;;6.05;3.80;;;;;;;;;;4931418;29;20034;-56
2023/04/25 00:04:34;;;;;;;5.95;4.25;;;;;;;;;;4927097;29;20040;-57
2023/04/25 00:07:03;;;;;;;6.57;3.78;;;;;;;;;;4932327;29;20066;-52
2023/04/25 00:09:28;;;;;;;6.55;4.38;;;;;;;;;;4928952;29;20031;-58
2023/04/25 00:11:53;;;;;;;6.55;4.22;;;;;;;;;;4927573;29;20666;-53
2023/04/25 00:14:19;;;;;;;5.40;3.45;;;;;;;;;;4930876;29;20421;-52
2023/04/25 00:16:44;;;;;;;6.10;3.33;;;;;;;;;;4934569;29;20030;-56
2023/04/25 00:19:09;;;;;;;5.13;3.50;;;;;;;;;;4930763;29;20650;-53
2023/04/25 00:21:35;;;;;;;6.30;3.60;;;;;;;;;;4932547;28;20035;-56
2023/04/25 00:24:00;;;;;;;5.47;3.67;;;;;;;;;;4931314;28;20143;-56
2023/04/25 00:26:26;;;;;;;6.07;3.85;;;;;;;;;;4932977;29;20436;-52
2023/04/25 00:28:52;;;;;;;8.10;4.68;;;;;;;;;;4929587;29;20032;-56
2023/04/25 00:31:17;;;;;;;7.47;4.20;;;;;;;;;;4928196;29;20042;-53
2023/04/25 00:33:43;;;;;;;8.65;4.30;;;;;;;;;;4929774;29;20118;-56
2023/04/25 00:36:08;;;;;;;7.28;3.95;;;;;;;;;;4934585;28;20052;-53
2023/04/25 00:38:34;;;;;;;7.25;3.90;;;;;;;;;;4918984;29;20053;-54
2023/04/25 00:40:59;;;;;;;5.45;3.72;;;;;;;;;;4932028;29;20066;-56
2023/04/25 00:43:25;;;;;;;8.07;4.40;;;;;;;;;;4929532;29;20430;-57
2023/04/25 00:45:51;;;;;;;6.20;3.92;;;;;;;;;;4932761;29;20078;-55
2023/04/25 00:48:17;;;;;;;7.60;4.47;;;;;;;;;;4931274;29;20532;-56
2023/04/25 00:50:46;;;;;;;6.80;3.55;;;;;;;;;;4930244;29;20039;-57
2023/04/25 00:53:12;;;;;;;4.43;3.40;;;;;;;;;;4932500;29;20035;-57
2023/04/25 00:55:37;;;;;;;6.93;3.92;;;;;;;;;;4933307;28;20032;-56
2023/04/25 00:58:02;;;;;;;5.20;3.65;;;;;;;;;;4935976;29;20038;-56
2023/04/25 01:00:28;;;;;;;6.35;3.60;;;;;;;;;;4933420;29;20034;-57
2023/04/25 01:02:54;;;;;;;6.65;3.88;;;;;;;;;;4951144;23;20051;-54
2023/04/25 01:05:19;;;;;;;6.72;4.00;;;;;;;;;;4946372;28;20050;-56
2023/04/25 01:07:47;;;;;;;6.73;4.17;;;;;;;;;;4945875;28;20325;-54
2023/04/25 01:10:12;;;;;;;5.90;4.00;;;;;;;;;;4948837;28;20560;-55
2023/04/25 01:12:37;;;;;;;5.38;4.00;;;;;;;;;;4948032;28;20126;-55
2023/04/25 01:15:03;;;;;;;5.30;3.33;;;;;;;;;;4934842;28;20034;-57
2023/04/25 01:17:28;;;;;;;6.22;3.97;;;;;;;;;;4962442;28;20038;-53
2023/04/25 01:19:54;;;;;;;5.45;3.67;;;;;;;;;;4946030;28;20038;-55
2023/04/25 01:22:20;;;;;;;8.23;4.47;;;;;;;;;;4947518;28;20470;-56
2023/04/25 01:24:46;;;;;;;5.50;3.90;;;;;;;;;;4946956;28;20163;-57
2023/04/25 01:27:12;;;;;;;6.30;3.93;;;;;;;;;;4950367;28;20031;-54
2023/04/25 01:29:38;;;;;;;6.03;4.40;;;;;;;;;;4947647;28;20548;-56
2023/04/25 01:32:04;;;;;;;6.53;4.13;;;;;;;;;;4950003;28;20086;-55
2023/04/25 01:34:29;;;;;;;7.45;4.38;;;;;;;;;;4947049;28;20031;-52
2023/04/25 01:36:58;;;;;;;5.10;3.90;;;;;;;;;;4947390;28;20032;-54
2023/04/25 01:39:24;;;;;;;6.88;4.40;;;;;;;;;;4946873;28;20474;-57
2023/04/25 01:41:50;;;;;;;8.63;5.00;;;;;;;;;;4947290;28;20039;-55
2023/04/25 01:44:15;;;;;;;6.78;4.60;;;;;;;;;;4959737;28;20031;-53
2023/04/25 01:46:41;;;;;;;8.60;4.95;;;;;;;;;;4945746;28;20032;-52
2023/04/25 01:49:06;;;;;;;9.60;4.72;;;;;;;;;;4961589;28;20035;-57
2023/04/25 01:51:32;;;;;;;8.48;5.13;;;;;;;;;;4945367;28;20061;-53
2023/04/25 01:53:58;;;;;;;6.70;4.83;;;;;;;;;;4961483;28;20393;-53
2023/04/25 01:56:24;;;;;;;8.38;4.57;;;;;;;;;;4949468;28;20508;-54
2023/04/25 01:58:50;;;;;;;7.65;4.72;;;;;;;;;;4945082;28;20035;-55
2023/04/25 02:01:18;;;;;;;6.75;4.30;;;;;;;;;;4944826;28;20094;-55
2023/04/25 02:03:53;;;;;;;6.93;4.63;;;;;;;;;;4960574;28;20039;-55
2023/04/25 02:06:32;;;;;;;7.70;4.70;;;;;;;;;;4946718;28;20035;-52
2023/04/25 02:08:57;;;;;;;6.13;4.38;;;;;;;;;;4960038;28;20035;-55
2023/04/25 02:11:23;;;;;;;7.15;4.40;;;;;;;;;;4959663;28;20730;-55
2023/04/25 02:14:16;;;;;;;6.45;4.38;;;;;;;;;;4958269;28;20340;-54
2023/04/25 02:17:05;;;;;;;7.10;4.13;;;;;;;;;;4962128;28;20129;-56
2023/04/25 02:19:31;;;;;;;5.65;4.28;;;;;;;;;;4958511;28;20939;-57
2023/04/25 02:21:56;;;;;;;5.78;4.30;;;;;;;;;;4945893;28;20035;-55
2023/04/25 02:24:22;;;;;;;6.07;4.53;;;;;;;;;;4943304;28;20035;-54
2023/04/25 02:26:49;;;;;;;7.43;4.85;;;;;;;;;;4946254;28;20840;-57
2023/04/25 02:29:15;;;;;;;8.63;4.67;;;;;;;;;;4944180;28;20055;-56
2023/04/25 02:31:41;;;;;;;7.32;5.00;;;;;;;;;;4944504;28;20312;-56
2023/04/25 02:34:06;;;;;;;7.40;4.55;;;;;;;;;;4943830;28;20035;-57
2023/04/25 02:36:35;;;;;;;7.35;4.43;;;;;;;;;;4943677;28;20042;-55
2023/04/25 02:39:00;;;;;;;8.68;4.70;;;;;;;;;;4943174;28;20035;-56
2023/04/25 02:41:26;;;;;;;6.97;4.40;;;;;;;;;;4945118;28;20047;-56
2023/04/25 02:43:54;;;;;;;5.35;4.25;;;;;;;;;;4944873;28;20034;-55
2023/04/25 02:46:19;;;;;;;8.52;4.65;;;;;;;;;;4943445;28;20639;-55
2023/04/25 02:48:45;;;;;;;9.70;4.60;;;;;;;;;;4958121;28;20489;-56
2023/04/25 02:51:11;;;;;;;8.88;4.35;;;;;;;;;;4942920;28;20031;-54
2023/04/25 02:53:36;;;;;;;6.15;4.43;;;;;;;;;;4960866;28;20050;-53
2023/04/25 02:56:01;;;;;;;7.25;4.53;;;;;;;;;;4947521;28;20023;-54
2023/04/25 02:58:27;;;;;;;6.78;4.53;;;;;;;;;;4960487;28;20551;-57
2023/04/25 03:00:53;;;;;;;7.80;4.63;;;;;;;;;;4942405;28;20678;-50
2023/04/25 03:03:21;;;;;;;6.90;4.68;;;;;;;;;;4960523;28;20046;-55
2023/04/25 03:05:48;;;;;;;6.50;4.93;;;;;;;;;;4943943;28;20053;-49
2023/04/25 03:08:16;;;;;;;6.95;4.70;;;;;;;;;;4960162;28;20036;-51
2023/04/25 03:10:42;;;;;;;6.78;5.00;;;;;;;;;;4943189;28;20059;-54
2023/04/25 03:13:09;;;;;;;8.73;5.40;;;;;;;;;;4960629;28;20656;-56
2023/04/25 03:15:35;;;;;;;8.60;5.20;;;;;;;;;;4958233;28;20118;-53
2023/04/25 03:18:00;;;;;;;7.75;5.80;;;;;;;;;;4959551;28;20053;-54
2023/04/25 03:20:25;;;;;;;12.05;6.10;;;;;;;;;;4944119;28;20655;-54
2023/04/25 03:22:51;;;;;;;9.63;6.15;;;;;;;;;;4960087;28;20034;-51
2023/04/25 03:25:17;;;;;;;9.63;5.50;;;;;;;;;;4946898;28;20166;-55
2023/04/25 03:27:42;;;;;;;7.45;4.78;;;;;;;;;;4943668;28;20034;-55
2023/04/25 03:30:08;;;;;;;6.40;4.85;;;;;;;;;;4943387;28;20409;-54
2023/04/25 03:32:34;;;;;;;7.85;4.50;;;;;;;;;;4957696;28;20038;-55
2023/04/25 03:35:00;;;;;;;6.15;4.38;;;;;;;;;;4943830;28;20031;-56
2023/04/25 03:37:26;;;;;;;7.33;4.80;;;;;;;;;;4948119;28;20047;-57
2023/04/25 03:39:52;;;;;;;6.72;4.45;;;;;;;;;;4945531;28;20089;-56
2023/04/25 03:42:18;;;;;;;7.38;4.63;;;;;;;;;;4957800;28;20413;-54
2023/04/25 03:44:43;;;;;;;9.18;5.60;;;;;;;;;;4945172;28;20035;-53
2023/04/25 03:47:09;;;;;;;13.50;6.47;;;;;;;;;;4944735;28;20678;-54
2023/04/25 03:49:35;;;;;;;9.05;5.65;;;;;;;;;;4945135;28;20393;-55
2023/04/25 03:52:02;;;;;;;8.85;5.60;;;;;;;;;;4941663;28;20034;-55
2023/04/25 03:54:33;;;;;;;9.25;5.70;;;;;;;;;;4957840;28;20043;-55
2023/04/25 03:57:07;;;;;;;8.57;5.75;;;;;;;;;;4944364;28;20031;-51
2023/04/25 03:59:36;;;;;;;7.00;4.90;;;;;;;;;;4941951;29;20110;-53
2023/04/25 04:02:02;;;;;;;7.20;4.63;;;;;;;;;;4957635;28;20035;-55
2023/04/25 04:04:28;;;;;;;7.32;4.88;;;;;;;;;;4943327;28;20105;-53
2023/04/25 04:06:53;;;;;;;8.07;4.53;;;;;;;;;;4958646;28;20614;-56
2023/04/25 04:09:24;;;;;;;6.95;4.70;;;;;;;;;;4957143;28;20043;-58
2023/04/25 04:11:49;;;;;;;12.43;6.28;;;;;;;;;;4944568;28;20023;-53
2023/04/25 04:14:15;;;;;;;17.95;10.50;;;;;;;;;;4943329;28;20102;-51
2023/04/25 04:16:45;;;;;;;14.75;9.05;;;;;;;;;;4944929;28;20042;-54
2023/04/25 04:19:10;;;;;;;12.15;7.57;;;;;;;;;;4945911;28;20039;-53
2023/04/25 04:21:37;;;;;;;12.15;6.57;;;;;;;;;;4943997;28;20401;-56
2023/04/25 04:24:03;;;;;;;9.57;6.28;;;;;;;;;;4958909;28;20544;-56
2023/04/25 04:26:34;;;;;;;8.45;5.10;;;;;;;;;;4944626;28;20097;-51
2023/04/25 04:29:22;;;;;;;10.27;5.47;;;;;;;;;;4943914;28;20031;-57
2023/04/25 04:31:57;;;;;;;8.02;5.28;;;;;;;;;;4958602;28;20130;-55
2023/04/25 04:34:24;;;;;;;7.50;5.45;;;;;;;;;;4959130;28;20047;-53
2023/04/25 04:36:50;;;;;;;8.00;5.45;;;;;;;;;;4943829;28;20035;-56
2023/04/25 04:39:15;;;;;;;9.02;5.82;;;;;;;;;;4942577;28;20051;-57
2023/04/25 04:41:52;;;;;;;9.50;5.50;;;;;;;;;;4959303;28;20095;-57
2023/04/25 04:44:38;;;;;;;7.22;4.78;;;;;;;;;;4956836;28;20061;-53
2023/04/25 04:47:32;;;;;;;7.97;5.25;;;;;;;;;;4928322;28;20524;-56
2023/04/25 04:50:23;;;;;;;8.82;5.32;;;;;;;;;;4931142;28;20043;-53
2023/04/25 04:53:04;;;;;;;7.13;4.88;;;;;;;;;;4942711;28;20768;-55
2023/04/25 04:55:52;;;;;;;7.57;4.93;;;;;;;;;;4938055;28;20039;-55
2023/04/25 04:58:31;;;;;;;7.57;5.05;;;;;;;;;;4943749;28;20129;-53
2023/04/25 05:01:07;;;;;;;7.72;5.25;;;;;;;;;;4940242;28;20405;-54
2023/04/25 05:03:41;;;;;;;7.95;5.25;;;;;;;;;;4939421;28;20123;-56
2023/04/25 05:06:13;;;;;;;8.05;5.05;;;;;;;;;;4942032;28;20090;-53
2023/04/25 05:08:38;;;;;;;8.35;5.10;;;;;;;;;;4941787;28;20039;-54
2023/04/25 05:11:13;;;;;;;8.85;5.50;;;;;;;;;;4942035;28;20043;-52
2023/04/25 05:13:57;;;;;;;10.60;5.03;;;;;;;;;;4944829;28;20042;-51
2023/04/25 05:16:46;;;;;;;6.60;4.82;;;;;;;;;;4928028;29;20158;-54
2023/04/25 05:19:36;;;;;;;7.32;4.78;;;;;;;;;;4960412;28;20038;-52
2023/04/25 05:22:15;;;;;;;7.25;5.10;;;;;;;;;;4960707;28;20043;-55
2023/04/25 05:25:03;;;;;;;8.65;5.38;;;;;;;;;;4945984;28;20043;-50
2023/04/25 05:27:53;;;;;;;6.68;4.90;;;;;;;;;;4946611;28;20393;-55
2023/04/25 05:30:27;;;;;;;8.40;5.75;;;;;;;;;;4959968;28;20519;-54
2023/04/25 05:33:22;;;;;;;7.75;4.90;;;;;;;;;;4931299;28;20058;-55
2023/04/25 05:35:48;;;;;;;7.90;4.70;;;;;;;;;;4959797;28;20027;-53
2023/04/25 05:38:13;;;;;;;6.78;4.70;;;;;;;;;;4962117;28;20039;-52
2023/04/25 05:41:02;;;;;;;7.82;5.00;;;;;;;;;;4930185;28;20110;-53
2023/04/25 05:43:49;;;;;;;8.48;5.30;;;;;;;;;;4945457;28;20162;-53
2023/04/25 05:46:27;;;;;;;11.23;5.18;;;;;;;;;;4958695;28;20113;-53
2023/04/25 05:49:08;;;;;;;7.78;4.85;;;;;;;;;;4960849;28;20077;-54
2023/04/25 05:51:47;;;;;;;6.38;4.88;;;;;;;;;;4959253;28;20035;-52
2023/04/25 05:54:29;;;;;;;9.00;5.85;;;;;;;;;;4944539;28;20054;-53
2023/04/25 05:56:56;;;;;;;7.75;5.82;;;;;;;;;;4951372;28;20101;-56
2023/04/25 05:59:22;;;;;;;8.63;5.35;;;;;;;;;;4945574;28;20070;-58
2023/04/25 06:01:47;;;;;;;8.52;5.90;;;;;;;;;;4942090;28;20035;-57
2023/04/25 06:04:13;;;;;;;8.02;5.18;;;;;;;;;;4944804;28;20035;-54
2023/04/25 06:06:38;;;;;;;7.05;5.30;;;;;;;;;;4946121;28;20039;-52
2023/04/25 06:09:03;;;;;;;8.25;5.70;;;;;;;;;;4944749;28;20027;-55
2023/04/25 06:11:30;;;;;;;9.95;5.95;;;;;;;;;;4946159;28;20037;-53
2023/04/25 06:13:55;;;;;;;8.27;5.25;;;;;;;;;;4949284;28;20046;-58
2023/04/25 06:16:21;;;;;;;7.53;5.07;;;;;;;;;;4947875;28;20761;-53
2023/04/25 06:18:46;;;;;;;6.35;4.80;;;;;;;;;;4957924;28;20123;-57
2023/04/25 06:21:12;;;;;;;7.32;5.15;;;;;;;;;;4928214;28;20050;-54
2023/04/25 06:23:37;;;;;;;8.45;4.80;;;;;;;;;;4948736;28;20401;-53
2023/04/25 06:26:05;;;;;;;9.20;5.53;;;;;;;;;;4944240;28;20090;-52
2023/04/25 06:28:32;;;;;;;7.90;5.88;;;;;;;;;;4961409;28;20662;-57
2023/04/25 06:30:58;;;;;;;8.25;5.47;;;;;;;;;;4943605;28;20039;-55
2023/04/25 06:33:24;;;;;;;6.78;5.13;;;;;;;;;;4950259;28;20050;-54
2023/04/25 06:35:50;;;;;;;8.02;5.28;;;;;;;;;;4960864;28;20123;-56
2023/04/25 06:38:20;;;;;;;7.80;5.40;;;;;;;;;;4961280;28;20497;-52
2023/04/25 06:40:47;;;;;;;8.18;4.97;;;;;;;;;;4962124;28;20034;-53
2023/04/25 06:43:13;;;;;;;7.25;4.60;;;;;;;;;;4944330;28;20039;-55
2023/04/25 06:45:57;;;;;;;5.95;4.30;;;;;;;;;;4945940;28;20054;-53
2023/04/25 06:48:26;;;;;;;7.57;4.40;;;;;;;;;;4943590;28;20027;-53
2023/04/25 06:50:52;;;;;;;7.57;4.83;;;;;;;;;;4930802;29;20039;-55
2023/04/25 06:53:18;;;;;;;7.55;5.00;;;;;;;;;;4943184;28;20028;-54
2023/04/25 06:55:46;;;;;;;8.25;4.28;;;;;;;;;;4961096;28;20054;-55
2023/04/25 06:58:16;;;;;;;6.45;4.43;;;;;;;;;;4959669;28;20076;-53
2023/04/25 07:00:53;;;;;;;6.10;4.15;;;;;;;;;;4958600;28;20098;-53
2023/04/25 07:03:21;;;;;;;5.40;3.95;;;;;;;;;;4942647;28;20070;-55
2023/04/25 07:05:47;;;;;;;7.65;4.18;;;;;;;;;;4960275;28;20078;-56
2023/04/25 07:08:13;;;;;;;5.60;4.18;;;;;;;;;;4944387;28;20035;-54
2023/04/25 07:10:38;;;;;;;6.20;4.20;;;;;;;;;;4958493;28;20085;-54
2023/04/25 07:13:04;;;;;;;5.78;4.20;;;;;;;;;;4947898;28;20027;-54
2023/04/25 07:15:29;;;;;;;7.82;4.97;;;;;;;;;;4941928;28;20035;-54
2023/04/25 07:17:55;;;;;;;5.97;4.10;;;;;;;;;;4944019;28;20031;-52
2023/04/25 07:20:21;;;;;;;5.47;3.85;;;;;;;;;;4943663;28;20047;-54
2023/04/25 07:22:46;;;;;;;6.72;4.50;;;;;;;;;;4957734;28;20086;-54
2023/04/25 07:25:12;;;;;;;6.05;4.25;;;;;;;;;;4945122;28;20567;-51
2023/04/25 07:27:37;;;;;;;7.35;4.40;;;;;;;;;;4959797;28;20450;-54
2023/04/25 07:30:15;;;;;;;5.10;3.88;;;;;;;;;;4944265;28;20130;-53
2023/04/25 07:32:41;;;;;;;6.07;3.85;;;;;;;;;;4961188;28;21102;-50
2023/04/25 07:35:07;;;;;;;10.02;4.00;;;;;;;;;;4945591;28;20042;-51
2023/04/25 07:37:36;;;;;;;5.00;3.85;;;;;;;;;;4927981;29;20023;-54
2023/04/25 07:40:16;;;;;;;5.00;3.90;;;;;;;;;;4929941;29;20474;-54
2023/04/25 07:42:45;;;;;;;5.95;4.00;;;;;;;;;;4943747;28;20089;-52
2023/04/25 07:45:12;;;;;;;6.05;3.95;;;;;;;;;;4961259;28;20058;-52
2023/04/25 07:47:39;;;;;;;5.25;3.83;;;;;;;;;;4946158;28;20571;-52
2023/04/25 07:50:05;;;;;;;5.35;3.90;;;;;;;;;;4959154;28;20039;-54
2023/04/25 07:52:31;;;;;;;6.97;4.25;;;;;;;;;;4944853;28;20089;-53
2023/04/25 07:55:05;;;;;;;7.45;4.78;;;;;;;;;;4945823;28;20167;-53
2023/04/25 07:57:40;;;;;;;5.22;3.67;;;;;;;;;;4944032;28;20488;-55
2023/04/25 08:00:09;;;;;;;7.65;3.97;;;;;;;;;;4959012;28;20532;-51
2023/04/25 08:02:39;;;;;;;4.82;3.58;;;;;;;;;;4944097;29;20058;-53
2023/04/25 08:05:07;;;;;;;5.45;3.90;;;;;;;;;;4944662;28;20031;-55
2023/04/25 08:07:32;;;;;;;6.22;4.63;;;;;;;;;;4958457;28;20728;-51
2023/04/25 08:10:02;;;;;;;8.75;4.57;;;;;;;;;;4958570;28;20031;-52
2023/04/25 08:12:31;;;;;;;6.85;4.90;;;;;;;;;;4941771;28;20042;-54
2023/04/25 08:14:57;;;;;;;6.20;4.93;;;;;;;;;;4943195;28;20102;-53
2023/04/25 08:17:26;;;;;;;8.40;4.70;;;;;;;;;;4959770;28;20027;-54
2023/04/25 08:19:51;;;;;;;9.98;6.03;;;;;;;;;;4942631;28;20783;-55
2023/04/25 08:22:23;;;;;;;6.80;5.13;;;;;;;;;;4958992;28;20098;-52
2023/04/25 08:24:53;;;;;;;6.50;4.70;;;;;;;;;;4960099;28;20035;-54
2023/04/25 08:27:20;;;;;;;8.30;5.45;;;;;;;;;;4961475;28;20039;-55
2023/04/25 08:29:46;;;;;;;8.27;5.72;;;;;;;;;;4961051;28;20198;-57
2023/04/25 08:32:11;;;;;;;8.30;5.70;;;;;;;;;;4934869;29;20161;-52
2023/04/25 08:34:42;;;;;;;8.48;5.93;;;;;;;;;;4944235;28;20117;-54
2023/04/25 08:37:09;;;;;;;11.10;6.40;;;;;;;;;;4943764;28;20498;-52
2023/04/25 08:39:39;;;;;;;10.02;6.15;;;;;;;;;;4941498;28;20058;-53
2023/04/25 08:42:24;;;;;;;9.48;5.75;;;;;;;;;;4945335;28;20050;-53
2023/04/25 08:44:50;;;;;;;7.80;5.70;;;;;;;;;;4943868;28;20035;-55
2023/04/25 08:47:17;;;;;;;7.63;5.25;;;;;;;;;;4960189;28;20453;-54
2023/04/25 08:49:49;;;;;;;8.15;5.18;;;;;;;;;;4959462;28;20483;-50
2023/04/25 08:52:21;;;;;;;8.25;5.80;;;;;;;;;;4959957;28;20082;-54
2023/04/25 08:54:48;;;;;;;10.57;5.70;;;;;;;;;;4961995;28;20114;-58
2023/04/25 08:57:15;;;;;;;7.55;5.35;;;;;;;;;;4949978;28;20035;-55
2023/04/25 08:59:42;;;;;;;;;;;;;;;;;;4963854;28;20055;-61
2023/04/25 09:02:09;;;;;;;8.57;5.40;;;;;;;;;;4962473;28;19969;-55
2023/04/25 09:04:35;;;;;;;8.10;5.18;;;;;;;;;;4961304;28;20127;-63
2023/04/25 09:07:00;;;;;;;9.07;4.93;;;;;;;;;;4948158;28;20110;-61
2023/04/25 09:09:26;;;;;;;8.25;5.15;;;;;;;;;;4952987;28;20039;-54
2023/04/25 09:11:53;;;;;;;8.38;4.53;;;;;;;;;;4962772;28;20405;-60
2023/04/25 09:14:20;;;;;;;6.53;4.50;;;;;;;;;;4944767;28;20947;-54
2023/04/25 09:17:04;;;;;;;7.75;5.15;;;;;;;;;;4947394;28;20027;-54
2023/04/25 09:19:39;;;;;;;6.68;4.88;;;;;;;;;;4946646;28;20062;-60
2023/04/25 09:22:06;;;;;;;9.10;5.25;;;;;;;;;;4962011;28;20031;-55
2023/04/25 09:24:32;;;;;;;8.23;5.40;;;;;;;;;;4946059;28;20035;-54
2023/04/25 09:26:57;;;;;;;7.53;5.30;;;;;;;;;;4945906;28;20032;-54
2023/04/25 09:29:32;;;;;;;6.68;5.07;;;;;;;;;;4945600;28;20039;-55
2023/04/25 09:32:17;;;;;;;8.15;5.00;;;;;;;;;;4961339;28;20027;-56
2023/04/25 09:34:44;;;;;;;6.38;5.35;;;;;;;;;;4961433;28;20032;-53
2023/04/25 09:37:11;;;;;;;7.45;5.10;;;;;;;;;;4946591;28;20655;-54
2023/04/25 09:39:56;;;;;;;9.25;5.10;;;;;;;;;;4947301;28;20167;-52
2023/04/25 09:42:25;;;;;;;10.10;5.68;;;;;;;;;;4961224;28;20035;-55
2023/04/25 09:44:54;;;;;;;10.07;6.15;;;;;;;;;;4947344;28;20027;-53
2023/04/25 09:47:21;;;;;;;7.55;5.22;;;;;;;;;;4946658;28;20426;-55
2023/04/25 09:49:47;;;;;;;9.32;5.97;;;;;;;;;;4944483;28;20154;-52
2023/04/25 09:52:15;;;;;;;10.05;5.70;;;;;;;;;;4946248;28;20605;-54
2023/04/25 09:54:49;;;;;;;8.55;6.07;;;;;;;;;;4949323;28;20481;-55
2023/04/25 09:57:22;;;;;;;6.70;5.20;;;;;;;;;;4948419;28;20066;-56
2023/04/25 09:59:48;;;;;;;;;;;;;;;;;;4945016;28;20035;-56
2023/04/25 10:02:14;;;;;;;8.40;4.93;;;;;;;;;;4945202;28;20356;-54
2023/04/25 10:04:40;;;;;;;7.55;5.30;;;;;;;;;;4945054;28;20039;-55
2023/04/25 10:07:14;;;;;;;8.65;5.13;;;;;;;;;;4944406;28;20039;-52
2023/04/25 10:09:45;;;;;;;8.23;5.18;;;;;;;;;;4943000;28;20821;-51
2023/04/25 10:12:11;;;;;;;10.82;6.03;;;;;;;;;;4946925;28;20023;-54
2023/04/25 10:14:36;;;;;;;9.93;6.25;;;;;;;;;;4945623;28;20051;-52
2023/04/25 10:17:02;;;;;;;8.82;6.10;;;;;;;;;;4961468;28;20051;-55
2023/04/25 10:19:28;;;;;;;10.02;7.18;;;;;;;;;;4947249;28;20031;-51
2023/04/25 10:22:03;;;;;;;9.77;7.13;;;;;;;;;;4950045;28;20031;-50
2023/04/25 10:24:29;;;;;;;9.13;6.15;;;;;;;;;;4945629;28;20288;-53
2023/04/25 10:26:55;;;;;;;9.63;6.18;;;;;;;;;;4947400;28;20031;-54
2023/04/25 10:29:21;;;;;;;7.93;6.17;;;;;;;;;;4948295;28;20036;-51
2023/04/25 10:31:47;;;;;;;8.77;6.80;;;;;;;;;;4944409;28;20284;-55
2023/04/25 10:34:12;;;;;;;9.95;7.55;;;;;;;;;;4939591;28;20035;-56
2023/04/25 10:36:38;;;;;;;5.70;4.32;;;;;;;;;;4945272;28;20401;-53
2023/04/25 10:39:08;;;;;;;7.50;4.25;;;;;;;;;;4943998;28;20023;-54
2023/04/25 10:41:47;;;;;;;5.13;3.88;;;;;;;;;;4946884;29;20050;-52
2023/04/25 10:44:13;;;;;;;7.97;4.50;;;;;;;;;;4947784;28;20046;-53
2023/04/25 10:46:38;;;;;;;6.75;4.63;;;;;;;;;;4948787;28;20031;-53
2023/04/25 10:49:04;;;;;;;8.00;4.70;;;;;;;;;;4949944;28;20027;-53
2023/04/25 10:51:31;;;;;;;9.68;4.78;;;;;;;;;;4948125;28;20113;-55
2023/04/25 10:53:57;;;;;;;6.30;4.43;;;;;;;;;;4949358;29;20039;-55
2023/04/25 10:56:23;;;;;;;6.38;4.28;;;;;;;;;;4948899;28;20089;-51
2023/04/25 10:58:48;;;;;;;6.07;3.90;;;;;;;;;;4949350;28;20035;-53
2023/04/25 11:01:14;;;;;;;6.65;3.85;;;;;;;;;;4947051;28;20047;-52
2023/04/25 11:03:41;;;;;;;6.80;4.13;;;;;;;;;;4948402;28;20061;-53
2023/04/25 11:06:09;;;;;;;6.40;3.47;;;;;;;;;;4947676;28;20042;-53
2023/04/25 11:08:46;;;;;;;5.28;3.97;;;;;;;;;;4949177;29;20109;-54
2023/04/25 11:11:12;;;;;;;;;;;;;;;;;;4946888;28;20409;-51
2023/04/25 11:13:37;;;;;;;9.77;5.00;;;;;;;;;;4963212;28;20360;-56
2023/04/25 11:16:02;;;;;;;6.93;5.30;;;;;;;;;;4947034;28;20051;-55
2023/04/25 11:18:28;;;;;;;8.77;5.30;;;;;;;;;;4948019;28;20031;-53
2023/04/25 11:20:53;;;;;;;9.38;6.53;;;;;;;;;;4947364;28;20473;-51
2023/04/25 11:23:18;;;;;;;11.30;7.25;;;;;;;;;;4947673;28;20031;-53
2023/04/25 11:25:44;;;;;;;10.25;7.22;;;;;;;;;;4946340;28;20421;-54
2023/04/25 11:28:10;;;;;;;11.25;6.53;;;;;;;;;;4948301;28;20036;-54
2023/04/25 11:30:35;;;;;;;9.05;5.97;;;;;;;;;;4947330;28;20035;-53
2023/04/25 11:33:02;;;;;;;10.25;6.90;;;;;;;;;;4948176;28;20035;-54
2023/04/25 11:35:27;;;;;;;9.80;6.78;;;;;;;;;;4947226;29;20043;-55
2023/04/25 11:37:53;;;;;;;8.05;5.80;;;;;;;;;;4962676;28;20035;-51
2023/04/25 11:40:18;;;;;;;10.13;6.30;;;;;;;;;;4947003;28;20457;-55
2023/04/25 11:42:44;;;;;;;10.50;6.90;;;;;;;;;;4948451;28;20791;-53
2023/04/25 11:45:10;;;;;;;11.10;6.45;;;;;;;;;;4947960;28;20038;-53
2023/04/25 11:47:36;;;;;;;10.00;6.88;;;;;;;;;;4947828;29;20039;-52
2023/04/25 11:50:02;;;;;;;8.43;6.13;;;;;;;;;;4962093;28;20110;-54
2023/04/25 11:52:37;;;;;;;9.70;6.78;;;;;;;;;;4947811;28;20080;-52
2023/04/25 11:55:07;;;;;;;7.53;5.63;;;;;;;;;;4947972;28;20027;-55
2023/04/25 11:57:32;;;;;;;8.80;5.40;;;;;;;;;;4945059;28;20377;-53
2023/04/25 12:00:08;;;;;;;8.35;5.07;;;;;;;;;;4940223;28;20484;-56
2023/04/25 12:02:39;;;;;;;8.25;4.63;;;;;;;;;;4939394;28;20125;-55
2023/04/25 12:05:09;;;;;;;7.97;5.15;;;;;;;;;;4942496;28;20106;-52
2023/04/25 12:07:34;;;;;;;10.38;5.70;;;;;;;;;;4940669;28;20031;-54
2023/04/25 12:10:03;;;;;;;11.75;5.85;;;;;;;;;;4939023;28;20085;-53
2023/04/25 12:12:32;;;;;;;9.88;5.75;;;;;;;;;;4945349;28;20665;-51
2023/04/25 12:15:08;;;;;;;9.25;5.72;;;;;;;;;;4943452;29;20448;-55
2023/04/25 12:17:33;;;;;;;8.57;5.55;;;;;;;;;;4944739;29;20046;-55
2023/04/25 12:19:58;;;;;;;7.50;5.75;;;;;;;;;;4943432;28;20405;-56
2023/04/25 12:22:24;;;;;;;9.20;5.35;;;;;;;;;;4942402;28;20043;-55
2023/04/25 12:24:49;;;;;;;9.52;5.95;;;;;;;;;;4943809;28;20039;-54
2023/04/25 12:27:16;;;;;;;9.38;5.10;;;;;;;;;;4945302;28;20063;-56
2023/04/25 12:29:51;;;;;;;7.37;5.23;;;;;;;;;;4931772;29;20719;-56
2023/04/25 12:32:16;;;;;;;9.43;5.32;;;;;;;;;;4947795;28;20054;-56
2023/04/25 12:34:42;;;;;;;6.80;5.47;;;;;;;;;;4948564;28;20073;-55
2023/04/25 12:37:07;;;;;;;7.05;4.90;;;;;;;;;;4948358;28;20154;-54
2023/04/25 12:39:32;;;;;;;8.55;4.95;;;;;;;;;;4947774;28;20067;-56
2023/04/25 12:41:58;;;;;;;6.28;4.70;;;;;;;;;;4946179;29;20062;-55
2023/04/25 12:44:24;;;;;;;6.85;4.63;;;;;;;;;;4962635;28;20090;-55
2023/04/25 12:46:49;;;;;;;8.43;4.60;;;;;;;;;;4947928;28;20602;-54
2023/04/25 12:49:15;;;;;;;7.95;4.95;;;;;;;;;;4948495;28;20063;-53
2023/04/25 12:51:41;;;;;;;8.52;5.90;;;;;;;;;;4945688;28;20063;-53
2023/04/25 12:54:08;;;;;;;9.48;5.53;;;;;;;;;;4949148;28;20030;-52
2023/04/25 12:56:33;;;;;;;9.30;5.75;;;;;;;;;;4947301;28;20528;-53
2023/04/25 12:58:58;;;;;;;7.85;5.85;;;;;;;;;;4947343;28;20508;-54
2023/04/25 13:01:24;;;;;;;9.30;6.22;;;;;;;;;;4948660;28;20046;-54
2023/04/25 13:03:50;;;;;;;9.18;6.20;;;;;;;;;;4949086;28;20043;-56
2023/04/25 13:06:16;;;;;;;11.68;7.07;;;;;;;;;;4947192;28;20054;-52
2023/04/25 13:08:42;;;;;;;11.45;7.07;;;;;;;;;;4946952;28;20449;-53
2023/04/25 13:11:07;;;;;;;8.75;6.57;;;;;;;;;;4947653;28;20035;-50
2023/04/25 13:13:34;;;;;;;11.85;8.32;;;;;;;;;;4947942;28;20043;-54
2023/04/25 13:16:00;;;;;;;10.43;7.07;;;;;;;;;;4947400;28;20031;-54
2023/04/25 13:18:26;;;;;;;11.60;7.07;;;;;;;;;;4947126;28;20035;-54
2023/04/25 13:20:54;;;;;;;9.93;6.93;;;;;;;;;;4946707;28;20057;-54
2023/04/25 13:23:20;;;;;;;9.98;6.85;;;;;;;;;;4946199;28;20036;-55
2023/04/25 13:25:45;;;;;;;10.50;7.15;;;;;;;;;;4947027;28;20038;-54
2023/04/25 13:28:11;;;;;;;11.80;7.10;;;;;;;;;;4948637;28;20073;-53
2023/04/25 13:30:36;;;;;;;9.60;7.13;;;;;;;;;;4946771;28;20428;-56
2023/04/25 13:33:03;;;;;;;12.95;6.90;;;;;;;;;;4946044;28;20035;-53
2023/04/25 13:35:29;;;;;;;11.90;6.15;;;;;;;;;;4946623;28;20432;-56
2023/04/25 13:37:54;;;;;;;9.85;6.07;;;;;;;;;;4946434;28;20023;-55
2023/04/25 13:40:20;;;;;;;9.30;6.25;;;;;;;;;;4943531;28;20046;-55
2023/04/25 13:42:45;;;;;;;10.18;5.95;;;;;;;;;;4947207;28;20035;-57
2023/04/25 13:45:10;;;;;;;10.32;6.53;;;;;;;;;;4961690;28;20051;-55
2023/04/25 13:47:36;;;;;;;9.30;6.53;;;;;;;;;;4946848;28;20524;-53
2023/04/25 13:50:02;;;;;;;9.73;6.55;;;;;;;;;;4946169;28;20047;-54
2023/04/25 13:52:28;;;;;;;9.82;5.90;;;;;;;;;;4947920;28;20027;-51
2023/04/25 13:54:53;;;;;;;9.85;5.68;;;;;;;;;;4946804;28;20050;-56
2023/04/25 13:57:19;;;;;;;10.02;6.15;;;;;;;;;;4947625;28;20082;-53
2023/04/25 13:59:45;;;;;;;9.65;6.57;;;;;;;;;;4946425;28;20445;-53
2023/04/25 14:02:11;;;;;;;15.25;7.10;;;;;;;;;;4946093;28;20047;-53
2023/04/25 14:04:37;;;;;;;10.85;7.40;;;;;;;;;;4947666;28;20024;-55
2023/04/25 14:07:03;;;;;;;13.13;7.45;;;;;;;;;;4946710;28;20405;-51
2023/04/25 14:09:28;;;;;;;13.80;7.35;;;;;;;;;;4944744;28;20903;-53
2023/04/25 14:11:54;;;;;;;13.45;8.30;;;;;;;;;;4929428;28;20043;-56
2023/04/25 14:14:20;;;;;;;13.15;8.32;;;;;;;;;;4937837;28;20027;-56
2023/04/25 14:16:50;;;;;;;9.98;6.95;;;;;;;;;;4940057;28;20046;-57
2023/04/25 14:19:15;;;;;;;12.18;7.88;;;;;;;;;;4936922;28;20038;-56
2023/04/25 14:21:41;;;;;;;12.95;7.85;;;;;;;;;;4939859;28;20422;-52
2023/04/25 14:24:06;;;;;;;11.57;8.18;;;;;;;;;;4936670;28;20062;-54
2023/04/25 14:26:33;;;;;;;15.38;9.15;;;;;;;;;;4944219;29;20541;-54
2023/04/25 14:28:58;;;;;;;16.38;9.35;;;;;;;;;;4936963;28;20086;-54
2023/04/25 14:31:23;;;;;;;14.93;9.23;;;;;;;;;;4936230;28;20043;-52
2023/04/25 14:33:48;;;;;;;13.90;8.77;;;;;;;;;;4943494;28;20118;-54
2023/04/25 14:36:14;;;;;;;12.27;8.05;;;;;;;;;;4938003;28;20023;-57
2023/04/25 14:38:39;;;;;;;11.02;7.60;;;;;;;;;;4944349;28;20023;-54
2023/04/25 14:41:05;;;;;;;13.90;7.47;;;;;;;;;;4937132;28;20541;-54
2023/04/25 14:43:30;;;;;;;15.65;8.82;;;;;;;;;;4936447;28;20094;-52
2023/04/25 14:45:56;;;;;;;22.15;12.57;;;;;;;;;;4944006;28;20035;-58
2023/04/25 14:48:21;;;;;;;13.85;7.82;;;;;;;;;;4939407;28;20511;-53